createdAt,value
2023-01-23T00:01:31.946Z,57.58
2023-01-23T00:03:59.312Z,57.95
2023-01-23T00:06:27.212Z,58.03
2023-01-23T00:08:56.452Z,57.65
2023-01-23T00:11:26.415Z,58.08
2023-01-23T00:13:53.933Z,58.04
2023-01-23T00:16:22.898Z,58.01
2023-01-23T00:18:50.406Z,57.69
2023-01-23T00:21:19.949Z,57.71
2023-01-23T00:23:49.269Z,58.06
2023-01-23T00:26:18.963Z,58.01
2023-01-23T00:28:47.096Z,58.12
2023-01-23T00:31:20.724Z,57.97
2023-01-23T00:33:54.431Z,57.59
2023-01-23T00:36:23.368Z,57.57
2023-01-23T00:38:50.148Z,57.84
2023-01-23T00:41:16.997Z,57.90
2023-01-23T00:43:43.686Z,57.54
2023-01-23T00:46:10.852Z,57.45
2023-01-23T00:48:39.467Z,57.71
2023-01-23T00:51:06.625Z,57.42
2023-01-23T00:53:33.467Z,57.72
2023-01-23T00:56:00.225Z,57.56
2023-01-23T00:58:27.060Z,57.48
2023-01-23T01:00:54.376Z,57.71
2023-01-23T01:03:21.892Z,57.45
2023-01-23T01:05:48.747Z,57.53
2023-01-23T01:08:15.796Z,57.44
2023-01-23T01:10:42.912Z,57.42
2023-01-23T01:13:10.735Z,57.29
2023-01-23T01:15:38.015Z,57.56
2023-01-23T01:18:04.951Z,57.57
2023-01-23T01:20:32.018Z,57.61
2023-01-23T01:23:00.577Z,57.67
2023-01-23T01:25:27.951Z,57.36
2023-01-23T01:27:56.119Z,57.52
2023-01-23T01:30:23.273Z,57.79
2023-01-23T01:32:50.102Z,57.84
2023-01-23T01:35:16.874Z,57.84
2023-01-23T01:37:43.650Z,57.51
2023-01-23T01:40:15.881Z,57.72
2023-01-23T01:42:52.108Z,57.52
2023-01-23T01:45:56.485Z,57.50
2023-01-23T01:48:26.088Z,57.44
2023-01-23T01:50:53.361Z,57.65
2023-01-23T01:53:22.288Z,57.69
2023-01-23T01:55:49.635Z,57.68
2023-01-23T01:58:16.517Z,57.60
2023-01-23T02:00:43.782Z,57.37
2023-01-23T02:03:10.944Z,57.46
2023-01-23T02:05:43.823Z,57.50
2023-01-23T02:08:16.992Z,57.71
2023-01-23T02:10:46.247Z,57.44
2023-01-23T02:13:28.513Z,57.79
2023-01-23T02:15:57.504Z,57.54
2023-01-23T02:18:24.535Z,57.36
2023-01-23T02:20:53.268Z,57.19
2023-01-23T02:23:50.381Z,57.71
2023-01-23T02:26:29.030Z,57.53
2023-01-23T02:28:56.121Z,57.47
2023-01-23T02:31:27.018Z,57.34
2023-01-23T02:33:57.369Z,57.80
2023-01-23T02:36:27.929Z,57.23
2023-01-23T02:39:02.705Z,57.58
2023-01-23T02:41:32.110Z,57.07
2023-01-23T02:44:02.952Z,57.29
2023-01-23T02:46:30.492Z,57.28
2023-01-23T02:48:58.103Z,57.09
2023-01-23T02:51:24.987Z,56.96
2023-01-23T02:53:51.910Z,57.37
2023-01-23T02:56:19.923Z,56.86
2023-01-23T02:59:07.329Z,56.93
2023-01-23T03:01:35.800Z,56.99
2023-01-23T03:04:06.560Z,56.89
2023-01-23T03:06:38.094Z,56.89
2023-01-23T03:09:08.750Z,57.34
2023-01-23T03:11:38.148Z,57.24
2023-01-23T03:14:07.217Z,57.52
2023-01-23T03:16:37.201Z,57.58
2023-01-23T03:19:09.051Z,57.23
2023-01-23T03:21:40.104Z,57.47
2023-01-23T03:24:09.775Z,57.42
2023-01-23T03:26:45.087Z,56.88
2023-01-23T03:29:41.594Z,57.01
2023-01-23T03:32:10.867Z,57.36
2023-01-23T03:34:38.139Z,57.21
2023-01-23T03:37:05.526Z,57.26
2023-01-23T03:39:52.132Z,57.29
2023-01-23T03:42:20.776Z,57.53
2023-01-23T03:44:51.014Z,57.45
2023-01-23T03:47:18.659Z,57.46
2023-01-23T03:49:49.182Z,57.64
2023-01-23T03:52:16.744Z,57.53
2023-01-23T03:54:43.652Z,57.66
2023-01-23T03:57:11.187Z,57.35
2023-01-23T04:00:02.269Z,56.95
2023-01-23T04:02:40.704Z,57.11
2023-01-23T04:05:10.274Z,57.07
2023-01-23T04:07:37.755Z,56.68
2023-01-23T04:10:05.513Z,56.71
2023-01-23T04:12:32.452Z,56.75
2023-01-23T04:14:59.741Z,56.30
2023-01-23T04:17:28.206Z,56.38
2023-01-23T04:19:55.102Z,56.40
2023-01-23T04:22:22.110Z,56.51
2023-01-23T04:24:50.611Z,56.60
2023-01-23T04:27:17.589Z,56.57
2023-01-23T04:29:44.273Z,56.29
2023-01-23T04:32:11.732Z,56.71
2023-01-23T04:34:44.227Z,56.34
2023-01-23T04:37:11.285Z,56.28
2023-01-23T04:39:39.063Z,56.41
2023-01-23T04:42:05.930Z,56.29
2023-01-23T04:45:05.549Z,56.06
2023-01-23T04:47:51.531Z,56.05
2023-01-23T04:50:18.776Z,56.26
2023-01-23T04:52:46.625Z,56.29
2023-01-23T04:55:14.092Z,55.97
2023-01-23T04:57:42.877Z,55.94
2023-01-23T05:00:23.885Z,55.96
2023-01-23T05:02:51.632Z,55.91
2023-01-23T05:05:20.876Z,55.59
2023-01-23T05:07:50.721Z,55.94
2023-01-23T05:10:18.756Z,55.53
2023-01-23T05:12:47.000Z,55.53
2023-01-23T05:15:13.795Z,55.36
2023-01-23T05:17:42.034Z,55.52
2023-01-23T05:20:10.964Z,55.21
2023-01-23T05:22:52.707Z,55.04
2023-01-23T05:25:25.954Z,54.88
2023-01-23T05:27:55.064Z,55.19
2023-01-23T05:30:23.580Z,54.96
2023-01-23T05:32:54.832Z,54.92
2023-01-23T05:35:22.227Z,54.98
2023-01-23T05:37:52.966Z,55.36
2023-01-23T05:40:23.415Z,54.97
2023-01-23T05:43:16.947Z,55.08
2023-01-23T05:46:13.083Z,54.95
2023-01-23T05:48:51.702Z,55.31
2023-01-23T05:51:20.889Z,55.17
2023-01-23T05:53:48.075Z,55.21
2023-01-23T05:56:16.975Z,54.77
2023-01-23T05:59:04.003Z,54.87
2023-01-23T06:01:42.847Z,55.13
2023-01-23T06:04:28.403Z,54.83
2023-01-23T06:07:15.200Z,54.99
2023-01-23T06:09:42.860Z,54.90
2023-01-23T06:12:10.340Z,54.94
2023-01-23T06:14:37.866Z,54.58
2023-01-23T06:17:06.140Z,54.99
2023-01-23T06:19:33.218Z,54.82
2023-01-23T06:22:00.265Z,54.92
2023-01-23T06:24:31.558Z,54.60
2023-01-23T06:27:00.020Z,54.21
2023-01-23T06:29:26.984Z,54.46
2023-01-23T06:31:53.997Z,54.76
2023-01-23T06:34:21.537Z,54.75
2023-01-23T06:36:57.584Z,54.33
2023-01-23T06:39:25.066Z,54.33
2023-01-23T06:41:53.530Z,54.29
2023-01-23T06:44:23.694Z,54.38
2023-01-23T06:46:52.884Z,55.13
2023-01-23T06:49:22.402Z,56.00
2023-01-23T06:51:49.383Z,56.30
2023-01-23T06:54:16.315Z,57.22
2023-01-23T06:56:44.484Z,57.91
2023-01-23T06:59:12.345Z,58.21
2023-01-23T07:01:41.098Z,58.49
2023-01-23T07:04:19.859Z,58.57
2023-01-23T07:06:49.949Z,59.00
2023-01-23T07:09:18.803Z,59.11
2023-01-23T07:11:54.054Z,59.47
2023-01-23T07:14:21.583Z,59.25
2023-01-23T07:16:51.950Z,59.55
2023-01-23T07:19:19.000Z,59.40
2023-01-23T07:21:49.390Z,59.94
2023-01-23T07:24:17.572Z,59.87
2023-01-23T07:26:44.554Z,60.00
2023-01-23T07:29:11.867Z,59.78
2023-01-23T07:31:38.650Z,60.38
2023-01-23T07:34:06.050Z,60.12
2023-01-23T07:36:33.109Z,60.59
2023-01-23T07:39:00.102Z,60.52
2023-01-23T07:41:27.165Z,60.47
2023-01-23T07:43:54.240Z,60.75
2023-01-23T07:46:21.047Z,60.58
2023-01-23T07:48:48.509Z,60.17
2023-01-23T07:51:16.063Z,60.35
2023-01-23T07:53:45.814Z,60.16
2023-01-23T07:56:14.149Z,59.96
2023-01-23T07:58:42.392Z,60.14
2023-01-23T08:01:11.208Z,59.35
2023-01-23T08:03:39.178Z,60.10
2023-01-23T08:06:06.832Z,59.85
2023-01-23T08:08:34.134Z,59.53
2023-01-23T08:11:05.372Z,59.18
2023-01-23T08:13:32.878Z,59.42
2023-01-23T08:16:00.086Z,59.76
2023-01-23T08:18:29.728Z,59.72
2023-01-23T08:20:57.883Z,59.98
2023-01-23T08:23:26.892Z,59.99
2023-01-23T08:25:58.515Z,60.01
2023-01-23T08:28:26.404Z,59.66
2023-01-23T08:30:54.426Z,59.57
2023-01-23T08:33:22.378Z,60.06
2023-01-23T08:35:53.428Z,59.61
2023-01-23T08:38:20.603Z,59.98
2023-01-23T08:40:48.367Z,60.06
2023-01-23T08:43:16.363Z,60.04
2023-01-23T08:45:49.439Z,59.93
2023-01-23T08:48:17.222Z,59.79
2023-01-23T08:50:44.019Z,60.05
2023-01-23T08:53:11.059Z,59.63
2023-01-23T08:55:38.998Z,59.50
2023-01-23T08:58:07.339Z,59.51
2023-01-23T09:00:34.936Z,59.10
2023-01-23T09:03:02.820Z,59.25
2023-01-23T09:05:30.886Z,58.91
2023-01-23T09:08:02.145Z,58.45
2023-01-23T09:10:29.324Z,58.31
2023-01-23T09:12:56.343Z,58.62
2023-01-23T09:15:23.515Z,58.46
2023-01-23T09:17:50.571Z,58.20
2023-01-23T09:20:17.851Z,57.90
2023-01-23T09:22:45.434Z,57.23
2023-01-23T09:25:21.553Z,57.31
2023-01-23T09:27:48.839Z,57.40
2023-01-23T09:30:15.750Z,57.51
2023-01-23T09:32:43.740Z,57.38
2023-01-23T09:35:10.723Z,57.39
2023-01-23T09:37:59.742Z,56.85
2023-01-23T09:40:37.085Z,56.69
2023-01-23T09:43:20.779Z,56.92
2023-01-23T09:45:57.845Z,56.46
2023-01-23T09:48:32.497Z,56.49
2023-01-23T09:51:07.033Z,56.64
2023-01-23T09:53:39.574Z,56.40
2023-01-23T09:56:29.315Z,56.47
2023-01-23T09:59:04.324Z,56.40
2023-01-23T10:01:31.553Z,55.88
2023-01-23T10:04:00.509Z,55.88
2023-01-23T10:06:30.674Z,55.89
2023-01-23T10:09:06.443Z,56.20
2023-01-23T10:11:36.507Z,55.67
2023-01-23T10:14:32.527Z,55.83
2023-01-23T10:17:05.593Z,55.81
2023-01-23T10:20:00.967Z,55.71
2023-01-23T10:22:48.031Z,54.91
2023-01-23T10:25:20.415Z,54.82
2023-01-23T10:27:49.194Z,55.50
2023-01-23T10:30:30.813Z,56.24
2023-01-23T10:33:10.300Z,56.31
2023-01-23T10:35:45.691Z,56.05
2023-01-23T10:38:24.867Z,55.82
2023-01-23T10:41:10.675Z,56.28
2023-01-23T10:43:37.499Z,55.99
2023-01-23T10:46:19.222Z,56.52
2023-01-23T10:48:51.144Z,56.57
2023-01-23T10:51:23.997Z,55.95
2023-01-23T10:54:30.640Z,56.48
2023-01-23T10:57:23.335Z,56.43
2023-01-23T11:00:00.640Z,57.10
2023-01-23T11:02:36.071Z,57.67
2023-01-23T11:05:25.272Z,57.95
2023-01-23T11:07:55.629Z,58.05
2023-01-23T11:10:23.945Z,57.84
2023-01-23T11:12:55.673Z,57.38
2023-01-23T11:15:28.536Z,57.52
2023-01-23T11:17:57.834Z,57.69
2023-01-23T11:20:32.173Z,57.75
2023-01-23T11:23:10.932Z,57.56
2023-01-23T11:25:45.734Z,57.78
2023-01-23T11:28:24.956Z,57.99
2023-01-23T11:31:11.506Z,57.73
2023-01-23T11:33:55.185Z,57.27
2023-01-23T11:36:30.477Z,57.02
2023-01-23T11:39:02.178Z,57.37
2023-01-23T11:41:34.006Z,57.23
2023-01-23T11:44:09.987Z,57.38
2023-01-23T11:46:41.205Z,56.89
2023-01-23T11:49:55.996Z,56.34
2023-01-23T11:52:42.828Z,55.97
2023-01-23T11:55:28.855Z,56.01
2023-01-23T11:58:50.336Z,55.92
2023-01-23T12:01:23.530Z,55.43
2023-01-23T12:04:06.052Z,55.64
2023-01-23T12:06:44.420Z,55.74
2023-01-23T12:09:18.589Z,55.50
2023-01-23T12:12:10.147Z,55.24
2023-01-23T12:14:48.873Z,55.15
2023-01-23T12:17:27.271Z,55.25
2023-01-23T12:20:06.125Z,55.40
2023-01-23T12:22:41.815Z,55.26
2023-01-23T12:25:33.145Z,55.22
2023-01-23T12:28:38.648Z,55.97
2023-01-23T12:31:36.781Z,56.14
2023-01-23T12:34:12.384Z,56.34
2023-01-23T12:37:12.114Z,56.51
2023-01-23T12:40:25.860Z,56.69
2023-01-23T12:43:04.826Z,56.79
2023-01-23T12:45:33.159Z,57.64
2023-01-23T12:48:12.228Z,57.40
2023-01-23T12:51:31.698Z,57.47
2023-01-23T12:54:00.780Z,57.49
2023-01-23T12:56:30.946Z,57.93
2023-01-23T12:59:00.677Z,57.83
2023-01-23T13:01:52.161Z,58.48
2023-01-23T13:04:43.561Z,58.51
2023-01-23T13:07:35.482Z,58.52
2023-01-23T13:10:17.242Z,58.64
2023-01-23T13:12:44.127Z,58.80
2023-01-23T13:15:19.080Z,59.13
2023-01-23T13:17:50.173Z,58.95
2023-01-23T13:20:38.606Z,58.90
2023-01-23T13:23:30.426Z,58.79
2023-01-23T13:26:15.822Z,58.95
2023-01-23T13:28:50.601Z,58.16
2023-01-23T13:31:34.632Z,58.66
2023-01-23T13:34:15.445Z,58.12
2023-01-23T13:36:44.247Z,58.20
2023-01-23T13:39:17.471Z,58.57
2023-01-23T13:41:45.131Z,58.21
2023-01-23T13:44:42.077Z,58.68
2023-01-23T14:21:49.064Z,59.73
2023-01-23T14:24:24.238Z,59.65
2023-01-23T14:26:54.088Z,59.66
2023-01-23T14:29:25.750Z,59.81
2023-01-23T14:31:53.080Z,60.29
2023-01-23T14:34:23.532Z,60.11
2023-01-23T14:37:04.074Z,60.58
2023-01-23T14:39:32.880Z,60.27
2023-01-23T14:42:02.687Z,60.54
2023-01-23T14:44:38.844Z,61.03
2023-01-23T14:47:05.908Z,60.72
2023-01-23T14:49:36.391Z,60.07
2023-01-23T14:52:05.711Z,60.16
2023-01-23T14:54:34.423Z,60.38
2023-01-23T14:57:04.448Z,60.12
2023-01-23T14:59:41.672Z,60.30
2023-01-23T15:02:40.937Z,60.68
2023-01-23T15:05:08.750Z,60.80
2023-01-23T15:07:42.932Z,60.94
2023-01-23T15:10:22.304Z,61.34
2023-01-23T15:13:09.947Z,61.26
2023-01-23T15:15:37.175Z,61.67
2023-01-23T15:18:23.471Z,61.57
2023-01-23T15:21:04.371Z,61.38
2023-01-23T15:23:31.993Z,61.68
2023-01-23T15:26:19.645Z,62.19
2023-01-23T15:28:52.510Z,62.17
2023-01-23T15:31:25.264Z,62.26
2023-01-23T15:33:52.545Z,62.35
2023-01-23T15:36:26.536Z,62.64
2023-01-23T15:38:54.463Z,62.92
2023-01-23T15:41:33.912Z,62.74
2023-01-23T15:44:01.243Z,62.86
2023-01-23T15:46:27.965Z,62.86
2023-01-23T15:48:54.778Z,62.97
2023-01-23T15:51:21.551Z,62.66
2023-01-23T15:53:48.350Z,62.89
2023-01-23T15:56:20.278Z,63.15
2023-01-23T15:58:46.928Z,63.03
2023-01-23T16:01:13.526Z,63.26
2023-01-23T16:03:40.254Z,63.21
2023-01-23T16:06:06.841Z,62.97
2023-01-23T16:08:33.506Z,63.10
2023-01-23T16:11:00.147Z,63.25
2023-01-23T16:13:26.869Z,63.21
2023-01-23T16:15:53.700Z,63.25
2023-01-23T16:18:20.491Z,63.03
2023-01-23T16:20:47.110Z,63.30
2023-01-23T16:23:16.635Z,62.85
2023-01-23T16:25:45.434Z,63.25
2023-01-23T16:28:16.750Z,62.84
2023-01-23T16:30:43.560Z,63.02
2023-01-23T16:33:10.249Z,63.19
2023-01-23T16:35:36.990Z,62.85
2023-01-23T16:38:03.588Z,63.16
2023-01-23T16:40:33.756Z,63.33
2023-01-23T16:43:02.685Z,63.29
2023-01-23T16:45:30.361Z,63.15
2023-01-23T16:47:57.686Z,63.32
2023-01-23T16:50:34.156Z,63.62
2023-01-23T16:53:12.803Z,63.62
2023-01-23T16:55:41.748Z,63.83
2023-01-23T16:58:15.918Z,63.78
2023-01-23T17:00:43.145Z,63.90
2023-01-23T17:03:17.097Z,63.44
2023-01-23T17:05:48.530Z,63.14
2023-01-23T17:08:18.636Z,62.89
2023-01-23T17:10:47.257Z,62.44
2023-01-23T17:13:15.487Z,62.02
2023-01-23T17:15:43.012Z,61.76
2023-01-23T17:18:21.211Z,61.82
2023-01-23T17:20:48.108Z,61.27
2023-01-23T17:23:14.851Z,61.13
2023-01-23T17:25:59.749Z,60.92
2023-01-23T17:28:27.658Z,60.72
2023-01-23T17:30:55.105Z,60.78
2023-01-23T17:33:27.748Z,60.67
2023-01-23T17:35:54.731Z,60.22
2023-01-23T17:38:24.046Z,60.27
2023-01-23T17:40:51.137Z,60.14
2023-01-23T17:43:19.442Z,59.68
2023-01-23T17:45:48.096Z,59.71
2023-01-23T17:48:16.976Z,59.29
2023-01-23T17:50:45.536Z,59.61
2023-01-23T17:53:16.951Z,58.98
2023-01-23T17:55:46.997Z,59.28
2023-01-23T17:58:14.183Z,58.94
2023-01-23T18:00:42.114Z,58.84
2023-01-23T18:03:12.998Z,58.97
2023-01-23T18:05:40.029Z,58.84
2023-01-23T18:08:07.041Z,58.32
2023-01-23T18:10:34.985Z,58.27
2023-01-23T18:13:06.813Z,58.57
2023-01-23T18:15:43.350Z,58.57
2023-01-23T18:18:20.476Z,58.31
2023-01-23T18:20:48.352Z,58.29
2023-01-23T18:23:15.507Z,58.37
2023-01-23T18:25:44.642Z,58.16
2023-01-23T18:28:19.983Z,58.42
2023-01-23T18:31:26.783Z,58.15
2023-01-23T18:34:05.942Z,57.92
2023-01-23T18:36:54.500Z,57.88
2023-01-23T18:39:44.556Z,57.88
2023-01-23T18:42:23.422Z,57.78
2023-01-23T18:44:55.374Z,57.78
2023-01-23T18:47:22.456Z,57.59
2023-01-23T18:49:49.559Z,58.06
2023-01-23T18:52:45.048Z,57.50
2023-01-23T18:55:21.202Z,57.58
2023-01-23T18:58:02.505Z,57.57
2023-01-23T19:00:34.682Z,57.21
2023-01-23T19:03:10.112Z,57.74
2023-01-23T19:05:37.055Z,57.08
2023-01-23T19:08:04.078Z,57.10
2023-01-23T19:10:47.715Z,57.28
2023-01-23T19:13:29.666Z,57.53
2023-01-23T19:15:59.033Z,57.27
2023-01-23T19:18:41.723Z,57.31
2023-01-23T19:21:16.200Z,57.21
2023-01-23T19:24:03.174Z,56.95
2023-01-23T19:26:35.126Z,57.11
2023-01-23T19:29:19.156Z,57.00
2023-01-23T19:32:02.840Z,57.11
2023-01-23T19:34:30.673Z,57.09
2023-01-23T19:36:57.403Z,57.47
2023-01-23T19:39:25.502Z,57.17
2023-01-23T19:41:53.400Z,57.26
2023-01-23T19:44:24.212Z,57.48
2023-01-23T19:46:51.303Z,57.32
2023-01-23T19:49:18.224Z,57.26
2023-01-23T19:51:45.156Z,57.13
2023-01-23T19:54:13.712Z,56.74
2023-01-23T19:56:41.274Z,57.02
2023-01-23T19:59:08.294Z,57.42
2023-01-23T20:01:38.705Z,57.38
2023-01-23T20:04:07.676Z,56.87
2023-01-23T20:06:38.793Z,57.13
2023-01-23T20:09:05.755Z,57.13
2023-01-23T20:11:32.505Z,57.01
2023-01-23T20:13:59.273Z,57.04
2023-01-23T20:16:26.780Z,57.06
2023-01-23T20:18:56.566Z,57.04
2023-01-23T20:21:27.592Z,56.69
2023-01-23T20:23:54.344Z,56.84
2023-01-23T20:26:21.678Z,56.66
2023-01-23T20:28:53.416Z,56.94
2023-01-23T20:31:20.576Z,57.04
2023-01-23T20:33:47.549Z,56.69
2023-01-23T20:36:15.931Z,56.78
2023-01-23T20:38:43.047Z,56.93
2023-01-23T20:41:15.524Z,56.82
2023-01-23T20:43:43.260Z,56.46
2023-01-23T20:46:11.151Z,56.94
2023-01-23T20:48:39.737Z,57.03
2023-01-23T20:51:09.623Z,56.66
2023-01-23T20:53:39.506Z,56.95
2023-01-23T20:56:12.300Z,56.54
2023-01-23T20:59:03.944Z,56.70
2023-01-23T21:01:54.569Z,56.49
2023-01-23T21:04:22.877Z,56.51
2023-01-23T21:06:49.580Z,56.81
2023-01-23T21:09:17.568Z,56.87
2023-01-23T21:11:44.436Z,56.61
2023-01-23T21:14:11.183Z,56.77
2023-01-23T21:16:37.836Z,56.62
2023-01-23T21:19:04.956Z,56.43
2023-01-23T21:21:31.895Z,56.75
2023-01-23T21:23:58.851Z,56.54
2023-01-23T21:26:27.239Z,56.30
2023-01-23T21:28:55.638Z,56.83
2023-01-23T21:31:32.897Z,56.72
2023-01-23T21:34:01.384Z,56.74
2023-01-23T21:36:28.359Z,56.68
2023-01-23T21:38:55.312Z,56.47
2023-01-23T21:41:22.900Z,56.49
2023-01-23T21:43:49.878Z,56.67
2023-01-23T21:46:16.703Z,56.74
2023-01-23T21:48:43.808Z,56.67
2023-01-23T21:51:11.843Z,56.65
2023-01-23T21:53:40.640Z,56.89
2023-01-23T21:56:08.563Z,56.73
2023-01-23T21:58:35.741Z,56.48
2023-01-23T22:01:24.283Z,56.46
2023-01-23T22:03:51.756Z,56.29
2023-01-23T22:06:18.446Z,56.82
2023-01-23T22:08:45.995Z,56.55
2023-01-23T22:11:12.931Z,56.46
2023-01-23T22:13:39.798Z,56.40
2023-01-23T22:16:07.148Z,56.68
2023-01-23T22:18:34.385Z,56.74
2023-01-23T22:21:02.851Z,56.75
2023-01-23T22:23:30.139Z,56.72
2023-01-23T22:25:59.254Z,56.49
2023-01-23T22:28:26.168Z,56.50
2023-01-23T22:30:52.907Z,56.64
2023-01-23T22:33:20.372Z,56.64
2023-01-23T22:35:48.175Z,56.62
2023-01-23T22:38:16.329Z,56.43
2023-01-23T22:40:43.422Z,56.72
2023-01-23T22:43:10.310Z,56.31
2023-01-23T22:45:37.083Z,56.60
2023-01-23T22:48:03.988Z,56.67
2023-01-23T22:50:30.733Z,56.52
2023-01-23T22:52:57.600Z,56.31
2023-01-23T22:55:24.348Z,56.31
2023-01-23T22:57:53.041Z,56.52
2023-01-23T23:00:20.639Z,56.52
2023-01-23T23:02:47.489Z,56.62
2023-01-23T23:05:14.206Z,56.66
2023-01-23T23:07:40.981Z,56.35
2023-01-23T23:10:09.516Z,56.42
2023-01-23T23:12:36.290Z,56.50
2023-01-23T23:15:03.304Z,56.32
2023-01-23T23:17:30.349Z,56.48
2023-01-23T23:19:57.107Z,56.67
2023-01-23T23:22:23.897Z,56.65
2023-01-23T23:24:50.529Z,56.50
2023-01-23T23:27:17.360Z,56.40
2023-01-23T23:29:44.159Z,56.63
2023-01-23T23:32:10.983Z,56.49
2023-01-23T23:34:37.709Z,56.51
2023-01-23T23:37:04.850Z,56.80
2023-01-23T23:39:31.486Z,56.75
2023-01-23T23:41:58.698Z,56.52
2023-01-23T23:44:25.475Z,56.88
2023-01-23T23:46:52.334Z,56.92
2023-01-23T23:49:19.016Z,56.75
2023-01-23T23:51:45.748Z,56.70
2023-01-23T23:54:12.398Z,56.72
2023-01-23T23:56:39.222Z,56.82
2023-01-23T23:59:06.019Z,56.96
